Time;durP1;ratioP1;P1;durP2;ratioP2;P2;SDS_P1;SDS_P2;PMS_P1;PMS_P2;Temp;Humidity;BMP_temperature;BMP_pressure;BME280_temperature;BME280_humidity;BME280_pressure;Samples;Min_cycle;Max_cycle;Signal;HPM_P1;HPM_P2
2022/09/15 00:02:02;;;;;;;;;5.00;3.00;;;;;22.67;60.97;100365.50;4975694;28;45343;-57
2022/09/15 00:04:27;;;;;;;;;5.00;5.00;;;;;22.66;61.17;100361.13;4975284;28;45776;-56
2022/09/15 00:06:52;;;;;;;;;12.75;9.50;;;;;22.64;60.91;100360.53;4975157;28;45384;-56
2022/09/15 00:09:18;;;;;;;;;27.25;18.25;;;;;22.65;60.97;100367.59;4975470;28;45402;-55
2022/09/15 00:11:43;;;;;;;;;17.75;14.75;;;;;22.64;61.12;100374.09;4975549;28;45449;-55
2022/09/15 00:14:09;;;;;;;;;16.25;12.75;;;;;22.62;60.90;100364.53;4975377;28;46289;-57
2022/09/15 00:16:35;;;;;;;;;12.25;10.00;;;;;22.62;61.28;100378.09;4975125;28;45341;-57
2022/09/15 00:19:01;;;;;;;;;6.40;5.40;;;;;22.58;61.24;100380.44;4975168;28;45466;-55
2022/09/15 00:21:32;;;;;;;;;6.00;4.60;;;;;22.53;61.33;100374.91;4975356;28;45349;-55
2022/09/15 00:23:59;;;;;;;;;4.20;4.20;;;;;22.50;60.88;100380.81;4975140;28;46087;-57
2022/09/15 00:26:27;;;;;;;;;4.00;3.00;;;;;22.45;61.29;100374.44;4974908;28;45381;-55
2022/09/15 00:28:52;;;;;;;;;3.00;2.00;;;;;22.39;61.18;100368.06;4975487;28;45308;-58
2022/09/15 00:31:20;;;;;;;;;6.00;3.50;;;;;22.41;61.27;100371.34;4975183;28;45348;-52
2022/09/15 00:33:50;;;;;;;;;3.80;2.00;;;;;22.38;60.99;100364.53;4974004;28;46317;-51
2022/09/15 00:36:16;;;;;;;;;1.20;1.20;;;;;22.36;61.14;100365.81;4974988;28;45441;-56
2022/09/15 00:38:42;;;;;;;;;2.00;2.00;;;;;22.32;61.23;100360.03;4975041;28;45333;-53
2022/09/15 00:41:10;;;;;;;;;1.25;1.25;;;;;22.31;61.04;100373.81;4975200;28;45313;-52
2022/09/15 00:44:24;;;;;;;;;2.00;2.00;;;;;22.29;60.86;100375.94;4989766;28;46389;-53
2022/09/15 00:46:53;;;;;;;;;4.80;3.00;;;;;22.26;61.35;100374.53;5014814;28;45251;-58
2022/09/15 00:49:23;;;;;;;;;2.00;2.00;;;;;22.25;61.37;100382.88;5015219;28;45353;-58
2022/09/15 00:52:00;;;;;;;;;4.25;2.25;;;;;22.22;61.34;100384.19;5015102;28;45564;-56
2022/09/15 00:54:34;;;;;;;;;2.20;2.20;;;;;22.20;61.26;100385.44;5014795;28;46257;-58
2022/09/15 00:57:10;;;;;;;;;5.00;2.80;;;;;22.16;61.87;100385.94;5014711;28;45574;-55
2022/09/15 00:59:39;;;;;;;;;1.00;1.00;;;;;22.16;61.53;100395.91;5015260;28;45321;-53
2022/09/15 01:02:26;;;;;;;;;1.80;1.80;;;;;22.13;61.88;100399.13;5015144;28;45328;-55
2022/09/15 01:04:53;;;;;;;;;1.00;1.00;;;;;22.11;62.24;100399.28;4997958;28;48051;-53
2022/09/15 01:07:26;;;;;;;;;4.00;2.40;;;;;22.07;61.84;100398.09;5014588;28;45534;-53
2022/09/15 01:10:01;;;;;;;;;2.00;2.00;;;;;22.00;62.28;100393.88;5014081;28;45314;-57
2022/09/15 01:12:27;;;;;;;;;5.50;4.00;;;;;22.02;62.32;100406.09;5015099;28;45405;-52
2022/09/15 01:14:53;;;;;;;;;4.00;3.00;;;;;21.99;62.56;100409.25;5014815;28;47272;-56
2022/09/15 01:17:26;;;;;;;;;3.00;3.00;;;;;21.97;62.13;100416.81;5014508;28;45217;-53
2022/09/15 01:20:07;;;;;;;;;5.80;5.80;;;;;21.95;62.08;100415.38;5014809;28;45442;-56
2022/09/15 01:22:45;;;;;;;;;5.25;5.25;;;;;21.91;62.26;100415.84;5001056;28;45440;-52
2022/09/15 01:25:46;;;;;;;;;3.25;3.25;;;;;21.87;62.32;100417.38;4974398;28;47018;-52
2022/09/15 01:28:39;;;;;;;;;6.80;4.80;;;;;21.81;62.63;100417.44;4974599;28;45220;-50
2022/09/15 01:31:15;;;;;;;;;8.00;5.00;;;;;21.77;62.32;100421.66;4974493;28;45353;-52
2022/09/15 01:33:59;;;;;;;;;5.50;5.25;;;;;21.77;62.21;100419.78;4974800;28;45517;-53
2022/09/15 01:36:42;;;;;;;;;5.20;5.20;;;;;21.73;63.26;100420.47;4974153;28;45456;-51
2022/09/15 01:39:24;;;;;;;;;6.80;6.00;;;;;21.75;62.93;100421.91;4974175;28;45184;-53
2022/09/15 01:41:56;;;;;;;;;10.40;10.40;;;;;21.43;63.24;100369.81;4974166;28;45339;-53
2022/09/15 01:44:25;;;;;;;;;7.75;7.00;;;;;21.75;63.56;100426.50;4976425;28;45216;-53
2022/09/15 01:46:58;;;;;;;;;12.25;8.00;;;;;21.61;63.08;100413.09;4977097;28;45318;-51
2022/09/15 01:49:41;;;;;;;;;8.40;6.00;;;;;21.67;63.18;100431.16;4992293;28;45686;-51
2022/09/15 01:52:07;;;;;;;;;8.60;6.20;;;;;21.64;63.33;100423.47;4977321;28;45920;-51
2022/09/15 01:54:41;;;;;;;;;4.75;4.75;;;;;21.64;63.17;100414.53;4977732;28;45327;-51
2022/09/15 01:57:06;;;;;;;;;7.50;5.50;;;;;21.64;63.32;100423.47;4977233;28;47162;-51
2022/09/15 01:59:32;;;;;;;;;8.00;6.00;;;;;21.62;63.40;100422.88;4978498;28;45254;-50
2022/09/15 02:02:12;;;;;;;;;5.60;4.40;;;;;21.60;63.56;100424.97;4977368;28;45386;-49
2022/09/15 02:04:54;;;;;;;;;4.50;3.50;;;;;21.57;63.36;100432.72;4977381;28;45529;-53
2022/09/15 02:07:46;;;;;;;;;7.75;5.00;;;;;21.56;63.65;100431.91;4976837;28;48249;-49
2022/09/15 02:10:32;;;;;;;;;5.80;5.40;;;;;21.55;63.40;100432.13;4978262;28;45312;-49
2022/09/15 02:13:04;;;;;;;;;6.40;3.80;;;;;21.52;63.67;100430.69;4977226;28;45523;-51
2022/09/15 02:15:42;;;;;;;;;1.50;1.50;;;;;21.50;63.31;100435.53;4977252;28;45442;-51
2022/09/15 02:18:13;;;;;;;;;4.40;3.80;;;;;21.50;63.23;100434.69;4977004;28;46298;-51
2022/09/15 02:20:58;;;;;;;;;3.00;3.00;;;;;21.45;62.96;100427.25;4977137;28;45241;-49
2022/09/15 02:23:37;;;;;;;;;2.60;2.60;;;;;21.42;63.08;100428.53;4976889;28;45389;-53
2022/09/15 02:26:08;;;;;;;;;3.75;3.50;;;;;21.42;63.82;100431.25;4976998;28;45485;-55
2022/09/15 02:28:37;;;;;;;;;3.25;3.25;;;;;21.39;63.67;100425.44;4976520;28;46356;-48
2022/09/15 02:31:08;;;;;;;;;5.60;5.60;;;;;21.39;63.52;100425.44;4975261;28;45401;-53
2022/09/15 02:33:43;;;;;;;;;7.75;6.25;;;;;21.36;63.66;100426.75;4976669;28;45497;-52
2022/09/15 02:36:13;;;;;;;;;5.50;5.00;;;;;21.28;63.29;100423.44;4976591;28;45315;-50
2022/09/15 02:38:44;;;;;;;;;7.75;4.50;;;;;21.29;62.71;100431.34;4976368;28;46403;-53
2022/09/15 02:41:11;;;;;;;;;5.80;5.80;;;;;21.23;62.36;100429.53;4975904;28;45798;-53
2022/09/15 02:43:48;;;;;;;;;11.50;6.75;;;;;21.16;62.59;100423.38;4976484;28;45405;-51
2022/09/15 02:46:15;;;;;;;;;10.50;6.25;;;;;21.12;62.95;100435.69;4976759;28;45459;-57
2022/09/15 02:48:41;;;;;;;;;7.00;6.75;;;;;21.09;62.86;100434.25;4976373;28;45967;-53
2022/09/15 02:51:07;;;;;;;;;9.25;8.50;;;;;21.06;62.94;100432.00;4976197;28;45500;-49
2022/09/15 02:53:32;;;;;;;;;11.25;7.75;;;;;20.70;62.67;100375.16;4976640;28;45374;-53
2022/09/15 02:55:58;;;;;;;;;8.50;8.50;;;;;21.04;62.50;100436.81;4975623;28;45260;-51
2022/09/15 02:58:24;;;;;;;;;9.00;7.75;;;;;20.97;62.41;100438.75;4976296;28;46045;-48
2022/09/15 03:00:49;;;;;;;;;11.00;10.25;;;;;20.91;62.83;100435.06;4976173;28;45335;-51
2022/09/15 03:03:17;;;;;;;;;8.50;8.00;;;;;20.84;62.78;100430.75;4976391;28;45169;-51
2022/09/15 03:05:42;;;;;;;;;7.75;7.75;;;;;20.78;62.73;100432.47;4976238;28;45581;-54
2022/09/15 03:08:08;;;;;;;;;16.75;12.00;;;;;20.76;62.78;100439.97;4976162;28;46134;-49
2022/09/15 03:10:33;;;;;;;;;12.00;11.75;;;;;20.74;63.42;100433.97;4976029;28;45441;-51
2022/09/15 03:12:58;;;;;;;;;11.75;10.00;;;;;20.71;63.22;100439.81;4976075;28;45384;-53
2022/09/15 03:15:25;;;;;;;;;15.50;11.00;;;;;20.71;63.33;100439.00;4977833;28;45311;-53
2022/09/15 03:17:51;;;;;;;;;11.00;9.75;;;;;20.66;63.45;100434.25;4975893;28;46307;-51
2022/09/15 03:20:26;;;;;;;;;13.75;10.75;;;;;20.70;62.92;100445.44;4975960;28;45509;-52
2022/09/15 03:22:53;;;;;;;;;11.00;9.75;;;;;20.66;63.35;100439.66;4976021;28;45319;-51
2022/09/15 03:25:19;;;;;;;;;14.25;11.50;;;;;20.63;63.23;100446.31;4976356;28;45505;-48
2022/09/15 03:27:45;;;;;;;;;14.00;13.50;;;;;20.64;62.74;100449.84;4975760;28;47140;-52
2022/09/15 03:30:11;;;;;;;;;13.50;13.00;;;;;20.62;63.19;100441.13;4975801;28;45382;-53
2022/09/15 03:32:36;;;;;;;;;12.75;11.00;;;;;20.40;62.83;100409.06;4976168;28;45324;-50
2022/09/15 03:35:03;;;;;;;;;15.50;13.75;;;;;20.58;63.21;100446.16;4976067;28;45481;-51
2022/09/15 03:37:29;;;;;;;;;16.50;13.50;;;;;20.55;63.07;100451.97;4975766;28;45524;-55
2022/09/15 03:39:54;;;;;;;;;18.25;12.75;;;;;20.54;63.04;100444.94;4975687;28;45480;-54
2022/09/15 03:42:20;;;;;;;;;12.25;11.00;;;;;20.55;62.73;100448.47;4975893;28;45322;-53
2022/09/15 03:44:45;;;;;;;;;11.00;10.00;;;;;20.50;62.31;100449.13;4975921;28;45570;-56
2022/09/15 03:47:11;;;;;;;;;10.00;9.00;;;;;20.47;62.42;100440.59;4975621;28;46275;-52
2022/09/15 03:49:36;;;;;;;;;16.25;10.25;;;;;20.43;62.74;100440.19;4974127;28;45402;-57
2022/09/15 03:52:01;;;;;;;;;12.50;9.00;;;;;20.36;62.97;100447.53;4975756;28;45493;-52
2022/09/15 03:54:27;;;;;;;;;14.00;10.75;;;;;20.30;62.58;100440.28;4975676;28;45294;-55
2022/09/15 03:56:52;;;;;;;;;12.00;9.25;;;;;20.29;62.73;100446.75;4975649;28;45945;-54
2022/09/15 03:59:19;;;;;;;;;10.75;10.25;;;;;20.21;62.63;100436.19;4975566;28;45391;-54
2022/09/15 04:01:45;;;;;;;;;15.75;13.50;;;;;20.29;62.20;100449.44;4975537;28;45366;-52
2022/09/15 04:04:11;;;;;;;;;15.00;11.25;;;;;20.27;62.43;100449.66;4975733;28;45279;-53
2022/09/15 04:06:37;;;;;;;;;16.50;13.50;;;;;20.31;62.06;100452.75;4974926;28;45538;-53
2022/09/15 04:09:03;;;;;;;;;15.75;11.00;;;;;20.30;62.01;100457.31;4975474;28;45327;-54
2022/09/15 04:11:29;;;;;;;;;15.00;12.25;;;;;20.26;61.30;100452.56;4975475;28;45386;-50
2022/09/15 04:13:55;;;;;;;;;13.00;9.75;;;;;20.21;61.38;100449.69;4977397;28;45917;-52
2022/09/15 04:16:23;;;;;;;;;8.50;7.50;;;;;20.22;61.44;100454.88;4975151;28;46287;-53
2022/09/15 04:18:54;;;;;;;;;13.50;10.50;;;;;20.19;61.20;100450.75;4975146;28;45239;-56
2022/09/15 04:21:22;;;;;;;;;15.75;12.50;;;;;20.17;61.04;100458.22;4975327;28;45892;-53
2022/09/15 04:23:47;;;;;;;;;12.25;8.00;;;;;20.15;61.48;100471.13;4975614;28;45470;-52
2022/09/15 04:26:17;;;;;;;;;15.00;11.00;;;;;20.09;61.35;100461.19;4975204;28;45592;-55
2022/09/15 04:28:43;;;;;;;;;14.50;9.00;;;;;20.03;61.43;100462.06;4975245;28;45275;-57
2022/09/15 04:31:11;;;;;;;;;12.25;11.00;;;;;19.97;61.29;100460.19;4975145;28;45504;-54
2022/09/15 04:33:38;;;;;;;;;13.50;11.00;;;;;19.90;61.25;100457.53;4975525;28;45378;-53
2022/09/15 04:36:07;;;;;;;;;16.25;12.75;;;;;19.87;61.44;100470.63;4975100;28;45251;-55
2022/09/15 04:38:34;;;;;;;;;13.00;10.75;;;;;19.81;61.45;100471.50;4974922;28;45243;-56
2022/09/15 04:41:00;;;;;;;;;14.25;11.75;;;;;19.76;61.31;100464.03;4974951;28;45399;-57
2022/09/15 04:43:26;;;;;;;;;13.50;11.00;;;;;19.78;61.41;100471.94;4990332;28;45342;-56
2022/09/15 04:45:53;;;;;;;;;19.00;12.50;;;;;19.76;61.48;100476.69;4974758;28;46331;-55
2022/09/15 04:48:18;;;;;;;;;17.00;14.50;;;;;19.70;61.23;100483.78;4974911;28;45548;-56
2022/09/15 04:50:44;;;;;;;;;13.67;11.67;;;;;19.64;61.25;100481.94;4974788;28;45350;-56
2022/09/15 04:53:09;;;;;;;;;15.00;13.33;;;;;19.60;61.07;100484.22;4974973;28;45335;-56
2022/09/15 04:55:35;;;;;;;;;12.00;12.00;;;;;19.58;61.26;100480.88;4974750;28;46115;-56
2022/09/15 04:58:02;;;;;;;;;14.33;14.00;;;;;19.50;61.12;100475.72;4974720;28;45467;-55
2022/09/15 05:00:33;;;;;;;;;19.67;16.33;;;;;19.59;61.27;100492.50;4974954;28;45298;-55
2022/09/15 05:02:59;;;;;;;;;18.25;12.75;;;;;19.51;61.21;100488.19;4975168;28;45632;-51
2022/09/15 05:05:24;;;;;;;;;14.00;11.67;;;;;19.51;61.13;100500.81;4974609;28;46206;-53
2022/09/15 05:07:50;;;;;;;;;15.25;11.25;;;;;19.48;61.30;100509.34;4974567;28;45323;-52
2022/09/15 05:10:16;;;;;;;;;16.25;12.75;;;;;19.45;60.94;100516.00;4974971;28;45443;-54
2022/09/15 05:12:41;;;;;;;;;20.67;15.00;;;;;19.42;61.49;100508.31;4974746;28;45400;-52
2022/09/15 05:15:07;;;;;;;;;17.00;16.25;;;;;19.37;61.22;100514.34;4976279;28;46269;-53
2022/09/15 05:17:33;;;;;;;;;18.33;17.67;;;;;19.32;61.58;100510.63;4974393;28;45348;-49
2022/09/15 05:19:59;;;;;;;;;17.25;13.50;;;;;19.35;61.42;100521.81;4976914;28;45287;-57
2022/09/15 05:22:25;;;;;;;;;17.67;17.67;;;;;19.35;61.63;100523.69;4977432;28;45543;-55
2022/09/15 05:24:50;;;;;;;;;16.67;12.33;;;;;19.31;61.68;100527.84;4977180;28;46102;-53
2022/09/15 05:27:16;;;;;;;;;15.33;15.33;;;;;19.27;61.78;100534.69;4977030;28;45334;-52
2022/09/15 05:29:42;;;;;;;;;10.00;8.33;;;;;19.19;61.64;100535.72;4977378;28;45415;-56
2022/09/15 05:32:07;;;;;;;;;10.00;9.25;;;;;19.16;61.80;100545.06;4977781;28;45307;-57
2022/09/15 05:34:33;;;;;;;;;10.25;10.00;;;;;19.09;61.91;100540.72;4977277;28;45370;-52
2022/09/15 05:36:58;;;;;;;;;17.67;12.00;;;;;18.97;62.26;100535.13;4977078;28;45368;-53
2022/09/15 05:39:24;;;;;;;;;14.33;10.00;;;;;18.84;62.64;100522.47;4977040;28;45260;-54
2022/09/15 05:41:49;;;;;;;;;9.25;8.75;;;;;18.90;62.70;100539.66;4977511;28;45245;-50
2022/09/15 05:44:14;;;;;;;;;9.75;7.00;;;;;18.86;62.88;100552.72;4976941;28;47606;-55
2022/09/15 05:46:40;;;;;;;;;9.25;9.00;;;;;18.84;62.90;100546.72;4976874;28;45298;-55
2022/09/15 05:49:07;;;;;;;;;12.25;9.00;;;;;18.82;63.30;100548.78;4977288;28;45441;-52
2022/09/15 05:51:33;;;;;;;;;7.75;6.00;;;;;18.81;62.99;100554.38;4977232;28;45422;-51
2022/09/15 05:53:58;;;;;;;;;7.50;6.75;;;;;18.80;63.36;100553.56;4977144;28;46240;-52
2022/09/15 05:56:24;;;;;;;;;9.00;7.00;;;;;18.81;63.34;100552.50;4976978;28;45304;-55
2022/09/15 05:58:49;;;;;;;;;10.33;10.00;;;;;18.83;63.41;100557.69;4975831;28;45510;-52
2022/09/15 06:01:18;;;;;;;;;8.75;8.00;;;;;18.73;63.44;100541.09;4977142;28;45278;-53
2022/09/15 06:03:45;;;;;;;;;10.00;8.50;;;;;18.83;63.48;100555.00;4976804;28;46351;-53
2022/09/15 06:06:11;;;;;;;;;13.50;10.50;;;;;18.84;63.57;100552.09;4976712;28;45461;-55
2022/09/15 06:08:40;;;;;;;;;17.67;11.00;;;;;18.88;63.20;100558.75;4977947;28;45481;-53
2022/09/15 06:11:09;;;;;;;;;16.50;11.25;;;;;18.91;63.50;100565.56;4977058;28;45365;-54
2022/09/15 06:13:35;;;;;;;;;13.67;13.33;;;;;18.94;63.35;100568.69;4976698;28;45373;-52
2022/09/15 06:16:06;;;;;;;;;16.67;12.67;;;;;19.00;63.56;100569.72;4976692;28;45224;-55
2022/09/15 06:18:33;;;;;;;;;19.33;12.67;;;;;19.04;63.07;100575.53;4976740;28;45395;-52
2022/09/15 06:21:06;;;;;;;;;17.25;11.50;;;;;19.05;62.94;100582.63;4977888;28;45553;-56
2022/09/15 06:23:31;;;;;;;;;19.33;14.33;;;;;19.08;63.18;100587.56;4976500;28;45935;-49
2022/09/15 06:26:03;;;;;;;;;19.33;13.00;;;;;19.07;62.80;100580.53;4993238;28;45431;-55
2022/09/15 06:28:28;;;;;;;;;18.33;16.00;;;;;19.14;62.26;100592.97;4976610;28;45319;-55
2022/09/15 06:30:54;;;;;;;;;17.00;13.00;;;;;19.17;62.39;100594.41;4975567;28;45236;-53
2022/09/15 06:33:19;;;;;;;;;20.00;15.00;;;;;19.19;62.67;100593.19;4976360;28;47238;-53
2022/09/15 06:35:44;;;;;;;;;17.67;14.00;;;;;19.24;62.54;100595.25;4976368;28;45432;-53
2022/09/15 06:38:10;;;;;;;;;16.67;14.67;;;;;19.27;62.25;100604.81;4976480;28;45480;-49
2022/09/15 06:40:36;;;;;;;;;16.67;15.00;;;;;19.32;62.00;100605.00;4976484;28;45445;-56
2022/09/15 06:43:01;;;;;;;;;14.67;11.67;;;;;19.37;62.04;100613.31;4975277;28;46591;-53
2022/09/15 06:45:28;;;;;;;;;18.67;15.67;;;;;19.41;61.79;100611.84;4976379;28;45394;-51
2022/09/15 06:47:54;;;;;;;;;17.33;16.33;;;;;19.45;61.28;100615.81;4976461;28;45296;-56
2022/09/15 06:50:20;;;;;;;;;16.33;14.33;;;;;19.47;61.68;100616.44;4975466;28;45209;-52
2022/09/15 06:52:46;;;;;;;;;18.33;14.00;;;;;19.50;61.80;100610.59;4976129;28;47275;-56
2022/09/15 06:55:11;;;;;;;;;18.33;17.00;;;;;19.52;61.23;100605.03;4976477;28;45255;-54
2022/09/15 06:57:37;;;;;;;;;16.33;16.33;;;;;19.59;61.16;100614.78;4976240;28;45363;-54
2022/09/15 07:00:05;;;;;;;;;18.67;16.33;;;;;19.62;61.19;100617.06;4976658;28;45331;-54
2022/09/15 07:02:30;;;;;;;;;19.33;17.33;;;;;19.66;61.23;100618.31;4976055;28;46206;-52
2022/09/15 07:04:56;;;;;;;;;17.67;16.67;;;;;19.67;60.71;100627.22;4976040;28;45388;-52
2022/09/15 07:07:21;;;;;;;;;21.67;19.00;;;;;19.66;60.57;100623.69;4976395;28;45342;-53
2022/09/15 07:09:46;;;;;;;;;20.67;16.33;;;;;19.69;60.26;100622.47;4976255;28;45482;-51
2022/09/15 07:12:12;;;;;;;;;19.67;18.33;;;;;19.75;60.11;100629.72;4976184;28;46073;-54
2022/09/15 07:14:37;;;;;;;;;24.67;16.00;;;;;19.84;59.92;100633.84;4976044;28;45511;-52
2022/09/15 07:17:02;;;;;;;;;20.33;19.00;;;;;19.93;59.66;100645.25;4976218;28;45465;-54
2022/09/15 07:19:28;;;;;;;;;22.33;18.00;;;;;20.03;59.46;100648.38;4976347;28;45473;-53
2022/09/15 07:21:53;;;;;;;;;26.00;20.00;;;;;20.12;58.91;100644.41;4975868;28;46029;-54
2022/09/15 07:24:19;;;;;;;;;23.67;21.00;;;;;20.27;58.63;100648.69;4975770;28;45294;-53
2022/09/15 07:26:44;;;;;;;;;18.67;16.67;;;;;20.41;58.09;100658.44;4976250;28;45590;-58
2022/09/15 07:29:09;;;;;;;;;21.00;18.00;;;;;20.97;57.31;100652.38;4975125;28;45446;-53
2022/09/15 07:31:37;;;;;;;;;22.00;18.00;;;;;22.24;54.26;100650.28;4975676;28;46291;-53
2022/09/15 07:34:03;;;;;;;;;20.50;18.00;;;;;23.47;50.67;100643.63;4975845;28;45303;-53
2022/09/15 07:36:29;;;;;;;;;18.75;16.50;;;;;24.15;49.54;100642.22;4975948;28;45319;-55
2022/09/15 07:38:55;;;;;;;;;24.25;21.75;;;;;23.94;48.48;100634.69;4976100;28;45355;-53
2022/09/15 07:41:26;;;;;;;;;15.75;14.00;;;;;23.46;49.72;100650.09;4974829;28;45339;-54
2022/09/15 07:43:54;;;;;;;;;19.75;15.75;;;;;23.07;50.33;100657.81;4975689;28;45363;-53
2022/09/15 07:46:21;;;;;;;;;21.50;17.00;;;;;22.79;51.06;100666.50;4975846;28;45411;-52
2022/09/15 07:48:49;;;;;;;;;24.00;18.00;;;;;22.55;51.65;100668.28;4976065;28;45311;-52
2022/09/15 07:51:15;;;;;;;;;20.75;18.00;;;;;22.40;52.24;100670.56;4975784;28;45487;-53
2022/09/15 07:53:42;;;;;;;;;23.25;16.75;;;;;22.24;52.10;100665.72;4975505;28;45283;-56
2022/09/15 07:56:07;;;;;;;;;21.00;17.75;;;;;22.13;52.30;100664.59;4975897;28;45288;-57
2022/09/15 07:58:33;;;;;;;;;17.75;16.00;;;;;22.11;52.21;100663.97;4975983;28;45488;-57
2022/09/15 08:01:09;;;;;;;;;19.50;18.00;;;;;22.15;52.96;100674.16;4975407;28;46150;-57
2022/09/15 08:03:38;;;;;;;;;17.00;15.25;;;;;22.30;52.17;100670.25;4976408;28;45351;-57
2022/09/15 08:06:03;;;;;;;;;25.00;16.25;;;;;22.42;51.38;100671.16;4974821;28;45429;-56
2022/09/15 08:08:29;;;;;;;;;21.50;18.00;;;;;23.28;49.89;100680.88;5003453;28;45521;-57
2022/09/15 08:10:55;;;;;;;;;23.00;17.50;;;;;25.00;47.13;100660.56;5077293;27;46249;-57
2022/09/15 08:13:20;;;;;;;;;17.50;15.75;;;;;26.68;42.89;100678.69;5077342;27;45443;-57
2022/09/15 08:15:46;;;;;;;;;16.00;14.50;;;;;27.98;40.94;100673.09;5077279;27;45389;-54
2022/09/15 08:18:12;;;;;;;;;14.25;14.25;;;;;28.94;37.61;100674.59;5077423;27;45421;-63
2022/09/15 08:20:39;;;;;;;;;15.75;13.00;;;;;29.40;37.09;100674.69;5077046;27;46326;-57
2022/09/15 08:23:04;;;;;;;;;13.80;10.80;;;;;28.58;38.16;100673.69;5090003;27;45428;-57
2022/09/15 08:25:30;;;;;;;;;11.50;11.25;;;;;28.42;38.23;100683.75;4975234;28;45391;-56
2022/09/15 08:27:55;;;;;;;;;14.50;12.25;;;;;29.76;36.52;100678.28;4975037;28;45431;-56
2022/09/15 08:30:22;;;;;;;;;14.00;11.75;;;;;31.22;33.83;100684.56;4974819;28;46886;-54
2022/09/15 08:32:48;;;;;;;;;16.60;13.60;;;;;32.40;32.71;100687.09;4974826;28;45424;-58
2022/09/15 08:35:14;;;;;;;;;12.00;10.20;;;;;33.22;32.80;100692.34;4975250;28;45311;-51
2022/09/15 08:37:40;;;;;;;;;18.60;11.40;;;;;33.81;30.56;100695.53;4975245;28;45619;-53
2022/09/15 08:40:08;;;;;;;;;13.50;11.25;;;;;34.37;30.75;100708.28;4974299;28;45500;-57
2022/09/15 08:42:33;;;;;;;;;14.80;11.60;;;;;34.81;28.52;100709.56;4975081;28;45241;-51
2022/09/15 08:45:07;;;;;;;;;11.50;9.75;;;;;35.79;27.79;100726.38;4975070;28;45365;-47
2022/09/15 08:47:39;;;;;;;;;12.20;8.60;;;;;36.03;27.32;100720.50;4974968;28;45493;-55
2022/09/15 08:50:11;;;;;;;;;9.40;7.60;;;;;35.84;26.92;100715.16;4974732;28;45441;-57
2022/09/15 08:52:44;;;;;;;;;9.80;8.00;;;;;34.95;29.16;100719.47;4974153;28;45463;-48
2022/09/15 08:55:49;;;;;;;;;9.60;7.80;;;;;34.22;28.63;100723.22;4973986;28;45494;-48
2022/09/15 08:58:22;;;;;;;;;5.60;4.80;;;;;34.07;29.19;100720.75;5014930;28;45843;-56
2022/09/15 09:01:10;;;;;;;;;5.40;4.00;;;;;33.98;29.00;100713.16;5014500;28;45494;-48
2022/09/15 09:03:46;;;;;;;;;4.40;4.20;;;;;33.84;28.35;100719.72;5002093;28;45412;-50
2022/09/15 09:06:38;;;;;;;;;7.80;7.20;;;;;33.73;28.92;100719.09;5014469;28;45399;-53
2022/09/15 09:09:15;;;;;;;;;4.80;4.80;;;;;33.45;28.29;100720.94;4984507;28;45479;-51
2022/09/15 09:11:54;;;;;;;;;8.20;6.60;;;;;33.54;29.14;100721.88;5014260;28;46204;-51
2022/09/15 09:14:28;;;;;;;;;9.80;6.80;;;;;33.72;29.17;100714.72;5014459;28;45362;-55
2022/09/15 09:17:11;;;;;;;;;9.20;7.40;;;;;33.92;28.90;100722.63;5014681;28;45385;-55
2022/09/15 09:19:36;;;;;;;;;7.00;6.00;;;;;33.92;28.42;100714.34;5014499;28;45441;-49
2022/09/15 09:22:20;;;;;;;;;8.00;4.75;;;;;33.70;28.96;100708.66;5014150;28;47236;-49
2022/09/15 09:24:50;;;;;;;;;7.00;5.40;;;;;33.52;28.77;100719.44;5014108;28;45460;-49
2022/09/15 09:27:21;;;;;;;;;7.00;7.00;;;;;33.29;29.45;100720.34;5014140;28;45430;-50
2022/09/15 09:29:53;;;;;;;;;7.00;5.00;;;;;33.04;29.62;100727.06;4981437;28;45554;-56
2022/09/15 09:32:26;;;;;;;;;4.60;4.00;;;;;32.46;29.85;100728.06;5016067;28;46395;-54
2022/09/15 09:35:00;;;;;;;;;4.40;4.20;;;;;32.05;30.97;100722.97;5076594;27;45379;-56
2022/09/15 09:37:27;;;;;;;;;3.20;3.00;;;;;31.72;30.41;100727.38;5076540;27;45255;-53
2022/09/15 09:39:52;;;;;;;;;3.40;3.40;;;;;31.52;30.60;100727.53;5076630;27;45441;-49
2022/09/15 09:42:18;;;;;;;;;9.00;4.00;;;;;31.32;31.23;100728.53;5076627;27;46062;-52
2022/09/15 09:44:45;;;;;;;;;4.80;3.40;;;;;31.22;30.69;100726.63;5076581;27;45250;-56
2022/09/15 09:47:12;;;;;;;;;7.00;5.00;;;;;31.26;30.87;100730.44;5076842;27;45306;-55
2022/09/15 09:49:47;;;;;;;;;3.40;3.00;;;;;31.19;31.39;100727.19;5076856;27;45299;-54
2022/09/15 09:52:32;;;;;;;;;4.40;3.60;;;;;31.35;30.54;100727.13;5076450;27;46197;-51
2022/09/15 09:55:22;;;;;;;;;3.00;3.00;;;;;31.55;31.27;100735.22;5076397;27;45282;-51
2022/09/15 09:57:49;;;;;;;;;4.80;4.80;;;;;31.88;30.79;100733.59;5076250;27;45415;-50
2022/09/15 10:00:33;;;;;;;;;4.20;4.00;;;;;32.47;30.10;100728.88;5076699;27;45519;-49
2022/09/15 10:03:14;;;;;;;;;5.60;4.60;;;;;33.18;28.43;100729.91;5076313;27;45197;-50
2022/09/15 10:05:40;;;;;;;;;3.00;3.00;;;;;33.67;29.61;100725.81;5078663;27;45257;-50
2022/09/15 10:08:13;;;;;;;;;7.60;4.80;;;;;34.55;26.47;100717.59;5079742;27;45401;-53
2022/09/15 10:10:48;;;;;;;;;4.00;3.00;;;;;35.38;25.39;100723.78;5079833;27;45429;-50
2022/09/15 10:13:13;;;;;;;;;3.80;3.80;;;;;35.77;25.24;100730.56;5079668;27;45895;-52
2022/09/15 10:15:39;;;;;;;;;5.75;4.00;;;;;36.08;25.23;100725.91;5079657;27;45398;-51
2022/09/15 10:18:05;;;;;;;;;2.80;2.80;;;;;35.72;24.76;100735.09;5079570;27;45389;-49
2022/09/15 10:20:45;;;;;;;;;4.00;4.00;;;;;36.63;25.65;100732.97;5080046;27;45375;-51
2022/09/15 10:23:16;;;;;;;;;9.60;4.20;;;;;39.42;22.11;100720.72;5079251;27;46204;-51
2022/09/15 10:25:42;;;;;;;;;5.20;5.00;;;;;39.60;21.19;100713.00;5079621;27;45373;-49
2022/09/15 10:28:07;;;;;;;;;4.60;4.40;;;;;40.12;20.29;100720.81;5079789;27;45298;-55
2022/09/15 10:30:33;;;;;;;;;6.25;4.50;;;;;41.34;19.34;100714.22;5079915;27;45160;-53
2022/09/15 10:33:26;;;;;;;;;3.00;3.00;;;;;41.17;20.01;100704.19;5079379;27;45363;-54
2022/09/15 10:35:54;;;;;;;;;5.80;3.60;;;;;39.14;21.52;100712.09;5079437;27;45264;-50
2022/09/15 10:38:36;;;;;;;;;4.00;2.40;;;;;36.91;23.89;100726.00;5079501;27;45234;-51
2022/09/15 10:41:09;;;;;;;;;4.60;4.60;;;;;35.10;25.02;100712.00;5079524;27;45464;-53
2022/09/15 10:43:57;;;;;;;;;3.40;3.40;;;;;33.92;26.30;100716.28;5079350;27;46648;-48
2022/09/15 10:46:27;;;;;;;;;6.00;5.60;;;;;35.66;25.10;100721.72;5079378;27;45260;-49
2022/09/15 10:49:05;;;;;;;;;4.60;3.00;;;;;37.50;23.11;100713.66;5095195;27;45346;-56
2022/09/15 10:51:38;;;;;;;;;4.40;3.60;;;;;37.14;23.84;100721.16;5079638;27;45278;-51
2022/09/15 10:54:30;;;;;;;;;3.80;3.00;;;;;35.44;25.27;100723.34;5079346;27;47323;-53
2022/09/15 10:57:20;;;;;;;;;4.00;3.40;;;;;33.81;26.42;100723.13;5079164;27;45395;-51
2022/09/15 11:00:02;;;;;;;;;3.80;3.80;;;;;32.68;28.02;100732.19;5079554;27;45362;-48
2022/09/15 11:02:41;;;;;;;;;5.20;5.00;;;;;32.95;28.22;100721.41;5079585;27;45579;-48
2022/09/15 11:05:16;;;;;;;;;6.80;4.80;;;;;32.38;28.36;100733.34;5079096;27;46690;-49
2022/09/15 11:07:52;;;;;;;;;4.40;4.40;;;;;31.30;29.41;100727.97;5078943;27;45538;-48
2022/09/15 11:10:55;;;;;;;;;7.00;4.60;;;;;30.49;30.78;100732.72;5079101;27;45385;-54
2022/09/15 11:13:49;;;;;;;;;5.20;5.20;;;;;29.98;31.62;100732.81;5077035;27;45228;-56
2022/09/15 11:16:23;;;;;;;;;4.60;3.40;;;;;30.94;30.65;100736.41;5078003;27;46354;-57
2022/09/15 11:19:02;;;;;;;;;4.60;3.60;;;;;34.86;27.18;100717.78;5078845;27;45483;-57
2022/09/15 11:21:34;;;;;;;;;6.00;3.20;;;;;37.72;22.70;100705.13;5079145;27;45378;-53
2022/09/15 11:24:44;;;;;;;;;4.40;4.40;;;;;40.23;21.24;100710.81;5079267;28;45338;-56
2022/09/15 11:27:22;;;;;;;;;5.60;5.20;;;;;41.32;19.15;100711.81;5075312;27;46231;-56
2022/09/15 11:29:53;;;;;;;;;5.80;4.80;;;;;39.92;20.60;100712.16;5078787;27;45450;-57
2022/09/15 11:32:24;;;;;;;;;3.60;3.60;;;;;37.85;22.12;100698.53;5078715;27;45349;-57